sensor_id;sensor_type;location;lat;lon;timestamp;P1;durP1;ratioP1;P2;durP2;ratioP2
12816;SDS011;6473;51.552;6.716;2023-09-18T00:00:57;8.10;;;6.78;;
12816;SDS011;6473;51.552;6.716;2023-09-18T00:03:23;9.75;;;7.28;;
12816;SDS011;6473;51.552;6.716;2023-09-18T00:05:50;7.60;;;6.90;;
12816;SDS011;6473;51.552;6.716;2023-09-18T00:08:18;8.10;;;6.68;;
12816;SDS011;6473;51.552;6.716;2023-09-18T00:10:47;7.90;;;7.10;;
12816;SDS011;6473;51.552;6.716;2023-09-18T00:13:17;8.23;;;7.07;;
12816;SDS011;6473;51.552;6.716;2023-09-18T00:15:44;9.18;;;6.78;;
12816;SDS011;6473;51.552;6.716;2023-09-18T00:18:12;8.98;;;7.35;;
12816;SDS011;6473;51.552;6.716;2023-09-18T00:20:39;7.07;;;6.32;;
12816;SDS011;6473;51.552;6.716;2023-09-18T00:23:07;7.57;;;6.78;;
12816;SDS011;6473;51.552;6.716;2023-09-18T00:25:34;6.88;;;6.18;;
12816;SDS011;6473;51.552;6.716;2023-09-18T00:28:03;7.80;;;6.80;;
12816;SDS011;6473;51.552;6.716;2023-09-18T00:30:30;7.93;;;6.60;;
12816;SDS011;6473;51.552;6.716;2023-09-18T00:32:57;6.88;;;6.28;;
12816;SDS011;6473;51.552;6.716;2023-09-18T00:35:24;7.82;;;6.70;;
12816;SDS011;6473;51.552;6.716;2023-09-18T00:37:51;8.73;;;7.07;;
12816;SDS011;6473;51.552;6.716;2023-09-18T00:40:19;7.28;;;6.40;;
12816;SDS011;6473;51.552;6.716;2023-09-18T00:42:46;7.32;;;6.60;;
12816;SDS011;6473;51.552;6.716;2023-09-18T00:45:14;12.27;;;6.47;;
12816;SDS011;6473;51.552;6.716;2023-09-18T00:47:42;7.50;;;6.45;;
12816;SDS011;6473;51.552;6.716;2023-09-18T00:50:09;9.43;;;6.30;;
12816;SDS011;6473;51.552;6.716;2023-09-18T00:52:39;7.57;;;6.40;;
12816;SDS011;6473;51.552;6.716;2023-09-18T00:55:08;7.90;;;6.82;;
12816;SDS011;6473;51.552;6.716;2023-09-18T00:57:35;8.75;;;6.47;;
12816;SDS011;6473;51.552;6.716;2023-09-18T01:00:02;7.90;;;7.05;;
12816;SDS011;6473;51.552;6.716;2023-09-18T01:02:31;7.13;;;6.43;;
12816;SDS011;6473;51.552;6.716;2023-09-18T01:05:00;7.32;;;6.63;;
12816;SDS011;6473;51.552;6.716;2023-09-18T01:07:27;9.40;;;7.50;;
12816;SDS011;6473;51.552;6.716;2023-09-18T01:09:54;8.43;;;6.60;;
12816;SDS011;6473;51.552;6.716;2023-09-18T01:12:22;7.78;;;6.60;;
12816;SDS011;6473;51.552;6.716;2023-09-18T01:15:01;7.78;;;6.28;;
12816;SDS011;6473;51.552;6.716;2023-09-18T01:17:35;7.80;;;7.00;;
12816;SDS011;6473;51.552;6.716;2023-09-18T01:20:03;7.55;;;6.70;;
12816;SDS011;6473;51.552;6.716;2023-09-18T01:22:33;8.27;;;7.05;;
12816;SDS011;6473;51.552;6.716;2023-09-18T01:25:00;7.75;;;6.65;;
12816;SDS011;6473;51.552;6.716;2023-09-18T01:27:27;7.95;;;6.13;;
12816;SDS011;6473;51.552;6.716;2023-09-18T01:29:54;7.20;;;6.50;;
12816;SDS011;6473;51.552;6.716;2023-09-18T01:32:22;6.80;;;5.68;;
12816;SDS011;6473;51.552;6.716;2023-09-18T01:34:54;6.68;;;5.97;;
12816;SDS011;6473;51.552;6.716;2023-09-18T01:37:23;8.30;;;6.40;;
12816;SDS011;6473;51.552;6.716;2023-09-18T01:39:55;10.23;;;6.53;;
12816;SDS011;6473;51.552;6.716;2023-09-18T01:42:24;7.55;;;6.75;;
12816;SDS011;6473;51.552;6.716;2023-09-18T01:44:52;7.10;;;6.07;;
12816;SDS011;6473;51.552;6.716;2023-09-18T01:47:20;7.90;;;6.30;;
12816;SDS011;6473;51.552;6.716;2023-09-18T01:49:48;7.00;;;6.40;;
12816;SDS011;6473;51.552;6.716;2023-09-18T01:52:15;7.20;;;6.05;;
12816;SDS011;6473;51.552;6.716;2023-09-18T01:54:42;9.35;;;6.00;;
12816;SDS011;6473;51.552;6.716;2023-09-18T01:57:12;7.68;;;5.88;;
12816;SDS011;6473;51.552;6.716;2023-09-18T01:59:39;6.05;;;5.45;;
12816;SDS011;6473;51.552;6.716;2023-09-18T02:02:06;7.72;;;5.60;;
12816;SDS011;6473;51.552;6.716;2023-09-18T02:04:35;6.05;;;5.45;;
12816;SDS011;6473;51.552;6.716;2023-09-18T02:07:02;8.18;;;6.20;;
12816;SDS011;6473;51.552;6.716;2023-09-18T02:09:29;6.88;;;5.60;;
12816;SDS011;6473;51.552;6.716;2023-09-18T02:11:56;6.60;;;5.32;;
12816;SDS011;6473;51.552;6.716;2023-09-18T02:14:24;7.70;;;6.05;;
12816;SDS011;6473;51.552;6.716;2023-09-18T02:16:51;7.93;;;6.38;;
12816;SDS011;6473;51.552;6.716;2023-09-18T02:19:19;8.13;;;5.50;;
12816;SDS011;6473;51.552;6.716;2023-09-18T02:21:46;8.75;;;5.45;;
12816;SDS011;6473;51.552;6.716;2023-09-18T02:24:12;8.07;;;5.32;;
12816;SDS011;6473;51.552;6.716;2023-09-18T02:26:39;8.45;;;6.07;;
12816;SDS011;6473;51.552;6.716;2023-09-18T02:29:07;9.18;;;6.03;;
12816;SDS011;6473;51.552;6.716;2023-09-18T02:31:38;6.47;;;5.38;;
12816;SDS011;6473;51.552;6.716;2023-09-18T02:34:05;6.15;;;5.55;;
12816;SDS011;6473;51.552;6.716;2023-09-18T02:36:32;6.85;;;5.75;;
12816;SDS011;6473;51.552;6.716;2023-09-18T02:38:59;7.85;;;5.78;;
12816;SDS011;6473;51.552;6.716;2023-09-18T02:41:26;6.95;;;6.25;;
12816;SDS011;6473;51.552;6.716;2023-09-18T02:43:53;7.38;;;6.15;;
12816;SDS011;6473;51.552;6.716;2023-09-18T02:46:19;9.27;;;6.05;;
12816;SDS011;6473;51.552;6.716;2023-09-18T02:48:48;7.20;;;5.85;;
12816;SDS011;6473;51.552;6.716;2023-09-18T02:51:15;7.60;;;6.28;;
12816;SDS011;6473;51.552;6.716;2023-09-18T02:53:42;7.45;;;5.88;;
12816;SDS011;6473;51.552;6.716;2023-09-18T02:56:09;6.40;;;5.55;;
12816;SDS011;6473;51.552;6.716;2023-09-18T02:58:37;8.85;;;6.20;;
12816;SDS011;6473;51.552;6.716;2023-09-18T03:01:03;6.68;;;5.43;;
12816;SDS011;6473;51.552;6.716;2023-09-18T03:03:32;7.60;;;5.47;;
12816;SDS011;6473;51.552;6.716;2023-09-18T03:06:01;9.00;;;6.38;;
12816;SDS011;6473;51.552;6.716;2023-09-18T03:08:29;8.98;;;6.10;;
12816;SDS011;6473;51.552;6.716;2023-09-18T03:10:57;7.45;;;4.95;;
12816;SDS011;6473;51.552;6.716;2023-09-18T03:13:25;5.80;;;5.30;;
12816;SDS011;6473;51.552;6.716;2023-09-18T03:15:53;8.70;;;5.20;;
12816;SDS011;6473;51.552;6.716;2023-09-18T03:18:20;7.40;;;5.57;;
12816;SDS011;6473;51.552;6.716;2023-09-18T03:20:47;5.20;;;4.60;;
12816;SDS011;6473;51.552;6.716;2023-09-18T03:23:15;5.97;;;5.05;;
12816;SDS011;6473;51.552;6.716;2023-09-18T03:25:42;7.60;;;5.10;;
12816;SDS011;6473;51.552;6.716;2023-09-18T03:28:09;8.48;;;5.05;;
12816;SDS011;6473;51.552;6.716;2023-09-18T03:30:36;6.65;;;4.70;;
12816;SDS011;6473;51.552;6.716;2023-09-18T03:33:03;8.35;;;4.85;;
12816;SDS011;6473;51.552;6.716;2023-09-18T03:35:31;5.63;;;5.00;;
12816;SDS011;6473;51.552;6.716;2023-09-18T03:37:58;5.63;;;4.22;;
12816;SDS011;6473;51.552;6.716;2023-09-18T03:40:27;7.13;;;4.63;;
12816;SDS011;6473;51.552;6.716;2023-09-18T03:42:53;7.78;;;4.78;;
12816;SDS011;6473;51.552;6.716;2023-09-18T03:45:20;10.80;;;4.70;;
12816;SDS011;6473;51.552;6.716;2023-09-18T03:47:48;6.03;;;4.47;;
12816;SDS011;6473;51.552;6.716;2023-09-18T03:50:16;6.68;;;4.90;;
12816;SDS011;6473;51.552;6.716;2023-09-18T03:52:43;6.28;;;5.20;;
12816;SDS011;6473;51.552;6.716;2023-09-18T03:55:10;7.35;;;3.95;;
12816;SDS011;6473;51.552;6.716;2023-09-18T03:57:41;8.57;;;4.30;;
12816;SDS011;6473;51.552;6.716;2023-09-18T04:00:08;8.10;;;4.22;;
12816;SDS011;6473;51.552;6.716;2023-09-18T04:02:39;5.53;;;4.05;;
12816;SDS011;6473;51.552;6.716;2023-09-18T04:05:06;5.93;;;3.75;;
12816;SDS011;6473;51.552;6.716;2023-09-18T04:07:34;6.65;;;4.63;;
12816;SDS011;6473;51.552;6.716;2023-09-18T04:10:01;6.63;;;4.57;;
12816;SDS011;6473;51.552;6.716;2023-09-18T04:12:28;5.55;;;4.50;;
12816;SDS011;6473;51.552;6.716;2023-09-18T04:14:57;8.02;;;4.55;;
12816;SDS011;6473;51.552;6.716;2023-09-18T04:17:24;9.65;;;4.93;;
12816;SDS011;6473;51.552;6.716;2023-09-18T04:19:51;8.02;;;5.55;;
12816;SDS011;6473;51.552;6.716;2023-09-18T04:22:20;9.68;;;5.15;;
12816;SDS011;6473;51.552;6.716;2023-09-18T04:24:47;8.68;;;5.30;;
12816;SDS011;6473;51.552;6.716;2023-09-18T04:27:15;7.80;;;5.00;;
12816;SDS011;6473;51.552;6.716;2023-09-18T04:29:42;9.00;;;5.18;;
12816;SDS011;6473;51.552;6.716;2023-09-18T04:32:10;11.93;;;5.10;;
12816;SDS011;6473;51.552;6.716;2023-09-18T04:34:37;7.13;;;4.90;;
12816;SDS011;6473;51.552;6.716;2023-09-18T04:37:04;6.82;;;4.45;;
12816;SDS011;6473;51.552;6.716;2023-09-18T04:42:06;11.05;;;4.90;;
12816;SDS011;6473;51.552;6.716;2023-09-18T04:44:34;6.72;;;4.90;;
12816;SDS011;6473;51.552;6.716;2023-09-18T04:47:05;7.30;;;5.22;;
12816;SDS011;6473;51.552;6.716;2023-09-18T04:49:33;5.07;;;4.55;;
12816;SDS011;6473;51.552;6.716;2023-09-18T04:52:00;9.50;;;5.38;;
12816;SDS011;6473;51.552;6.716;2023-09-18T04:54:28;6.25;;;5.03;;
12816;SDS011;6473;51.552;6.716;2023-09-18T04:56:54;9.77;;;4.78;;
12816;SDS011;6473;51.552;6.716;2023-09-18T04:59:21;9.15;;;4.90;;
12816;SDS011;6473;51.552;6.716;2023-09-18T05:01:48;7.22;;;5.13;;
12816;SDS011;6473;51.552;6.716;2023-09-18T05:04:15;7.63;;;5.13;;
12816;SDS011;6473;51.552;6.716;2023-09-18T05:06:44;7.38;;;4.75;;
12816;SDS011;6473;51.552;6.716;2023-09-18T05:09:11;8.50;;;4.50;;
12816;SDS011;6473;51.552;6.716;2023-09-18T05:11:39;7.35;;;4.25;;
12816;SDS011;6473;51.552;6.716;2023-09-18T05:14:07;8.15;;;4.22;;
12816;SDS011;6473;51.552;6.716;2023-09-18T05:16:34;7.38;;;4.55;;
12816;SDS011;6473;51.552;6.716;2023-09-18T05:19:01;8.10;;;4.53;;
12816;SDS011;6473;51.552;6.716;2023-09-18T05:21:27;9.27;;;4.47;;
12816;SDS011;6473;51.552;6.716;2023-09-18T05:23:56;6.97;;;4.38;;
12816;SDS011;6473;51.552;6.716;2023-09-18T05:26:23;6.07;;;4.95;;
12816;SDS011;6473;51.552;6.716;2023-09-18T05:28:50;5.93;;;4.18;;
12816;SDS011;6473;51.552;6.716;2023-09-18T05:31:19;8.23;;;5.10;;
12816;SDS011;6473;51.552;6.716;2023-09-18T05:33:45;8.10;;;4.80;;
12816;SDS011;6473;51.552;6.716;2023-09-18T05:36:13;5.07;;;3.83;;
12816;SDS011;6473;51.552;6.716;2023-09-18T05:38:40;8.32;;;4.53;;
12816;SDS011;6473;51.552;6.716;2023-09-18T05:46:59;7.25;;;4.22;;
12816;SDS011;6473;51.552;6.716;2023-09-18T05:49:28;6.88;;;4.03;;
12816;SDS011;6473;51.552;6.716;2023-09-18T05:51:55;5.97;;;3.90;;
12816;SDS011;6473;51.552;6.716;2023-09-18T05:54:22;4.90;;;3.53;;
12816;SDS011;6473;51.552;6.716;2023-09-18T05:56:49;7.63;;;4.03;;
12816;SDS011;6473;51.552;6.716;2023-09-18T05:59:16;6.57;;;3.60;;
12816;SDS011;6473;51.552;6.716;2023-09-18T06:01:44;4.72;;;3.53;;
12816;SDS011;6473;51.552;6.716;2023-09-18T06:04:14;9.75;;;3.85;;
12816;SDS011;6473;51.552;6.716;2023-09-18T06:06:42;6.88;;;3.70;;
12816;SDS011;6473;51.552;6.716;2023-09-18T06:09:08;6.50;;;3.70;;
12816;SDS011;6473;51.552;6.716;2023-09-18T06:11:35;5.97;;;3.70;;
12816;SDS011;6473;51.552;6.716;2023-09-18T06:14:02;4.40;;;3.10;;
12816;SDS011;6473;51.552;6.716;2023-09-18T06:16:30;5.25;;;3.00;;
12816;SDS011;6473;51.552;6.716;2023-09-18T06:18:57;5.20;;;3.08;;
12816;SDS011;6473;51.552;6.716;2023-09-18T06:21:26;4.40;;;3.17;;
12816;SDS011;6473;51.552;6.716;2023-09-18T06:23:54;6.28;;;2.95;;
12816;SDS011;6473;51.552;6.716;2023-09-18T06:26:21;4.47;;;3.15;;
12816;SDS011;6473;51.552;6.716;2023-09-18T06:28:47;5.18;;;3.47;;
12816;SDS011;6473;51.552;6.716;2023-09-18T06:31:14;6.40;;;4.35;;
12816;SDS011;6473;51.552;6.716;2023-09-18T06:33:41;5.85;;;3.67;;
12816;SDS011;6473;51.552;6.716;2023-09-18T06:36:08;4.45;;;4.05;;
12816;SDS011;6473;51.552;6.716;2023-09-18T06:38:36;4.00;;;3.63;;
12816;SDS011;6473;51.552;6.716;2023-09-18T06:41:03;5.32;;;3.95;;
12816;SDS011;6473;51.552;6.716;2023-09-18T06:43:30;6.75;;;3.55;;
12816;SDS011;6473;51.552;6.716;2023-09-18T06:45:57;6.10;;;3.40;;
12816;SDS011;6473;51.552;6.716;2023-09-18T06:48:23;4.20;;;3.80;;
12816;SDS011;6473;51.552;6.716;2023-09-18T06:50:50;8.27;;;4.18;;
12816;SDS011;6473;51.552;6.716;2023-09-18T06:53:17;5.80;;;3.65;;
12816;SDS011;6473;51.552;6.716;2023-09-18T06:55:45;6.40;;;4.43;;
12816;SDS011;6473;51.552;6.716;2023-09-18T06:58:12;5.78;;;4.30;;
12816;SDS011;6473;51.552;6.716;2023-09-18T07:00:39;6.32;;;3.28;;
12816;SDS011;6473;51.552;6.716;2023-09-18T07:03:06;3.35;;;3.05;;
12816;SDS011;6473;51.552;6.716;2023-09-18T07:05:34;3.38;;;3.08;;
12816;SDS011;6473;51.552;6.716;2023-09-18T07:08:01;3.75;;;2.90;;
12816;SDS011;6473;51.552;6.716;2023-09-18T07:10:30;5.25;;;2.55;;
12816;SDS011;6473;51.552;6.716;2023-09-18T07:12:59;6.55;;;2.83;;
12816;SDS011;6473;51.552;6.716;2023-09-18T07:15:26;3.63;;;2.38;;
12816;SDS011;6473;51.552;6.716;2023-09-18T07:17:53;4.80;;;2.80;;
12816;SDS011;6473;51.552;6.716;2023-09-18T07:20:20;4.82;;;2.38;;
12816;SDS011;6473;51.552;6.716;2023-09-18T07:22:48;4.78;;;2.03;;
12816;SDS011;6473;51.552;6.716;2023-09-18T07:25:15;3.10;;;2.30;;
12816;SDS011;6473;51.552;6.716;2023-09-18T07:27:43;3.35;;;2.22;;
12816;SDS011;6473;51.552;6.716;2023-09-18T07:30:11;4.15;;;2.00;;
12816;SDS011;6473;51.552;6.716;2023-09-18T07:32:41;2.70;;;2.08;;
12816;SDS011;6473;51.552;6.716;2023-09-18T07:35:08;5.78;;;2.10;;
12816;SDS011;6473;51.552;6.716;2023-09-18T07:37:35;4.28;;;2.20;;
12816;SDS011;6473;51.552;6.716;2023-09-18T07:40:03;3.63;;;2.15;;
12816;SDS011;6473;51.552;6.716;2023-09-18T07:42:30;4.07;;;1.80;;
12816;SDS011;6473;51.552;6.716;2023-09-18T07:44:57;3.67;;;1.88;;
12816;SDS011;6473;51.552;6.716;2023-09-18T07:47:25;2.47;;;2.20;;
12816;SDS011;6473;51.552;6.716;2023-09-18T07:49:52;2.65;;;1.90;;
12816;SDS011;6473;51.552;6.716;2023-09-18T07:52:20;3.10;;;2.25;;
12816;SDS011;6473;51.552;6.716;2023-09-18T07:54:47;4.47;;;1.88;;
12816;SDS011;6473;51.552;6.716;2023-09-18T07:57:15;2.55;;;1.80;;
12816;SDS011;6473;51.552;6.716;2023-09-18T07:59:42;2.63;;;1.98;;
12816;SDS011;6473;51.552;6.716;2023-09-18T08:02:09;3.92;;;2.30;;
12816;SDS011;6473;51.552;6.716;2023-09-18T08:04:38;4.43;;;1.98;;
12816;SDS011;6473;51.552;6.716;2023-09-18T08:07:05;2.22;;;1.60;;
12816;SDS011;6473;51.552;6.716;2023-09-18T08:09:32;3.47;;;1.60;;
12816;SDS011;6473;51.552;6.716;2023-09-18T08:12:01;2.92;;;1.80;;
12816;SDS011;6473;51.552;6.716;2023-09-18T08:14:28;4.15;;;1.83;;
12816;SDS011;6473;51.552;6.716;2023-09-18T08:16:58;4.07;;;1.90;;
12816;SDS011;6473;51.552;6.716;2023-09-18T08:19:25;2.83;;;2.10;;
12816;SDS011;6473;51.552;6.716;2023-09-18T08:21:54;3.10;;;1.50;;
12816;SDS011;6473;51.552;6.716;2023-09-18T08:24:22;2.22;;;1.65;;
12816;SDS011;6473;51.552;6.716;2023-09-18T08:26:49;2.58;;;1.60;;
12816;SDS011;6473;51.552;6.716;2023-09-18T08:29:16;2.72;;;1.67;;
12816;SDS011;6473;51.552;6.716;2023-09-18T08:31:43;3.17;;;1.67;;
12816;SDS011;6473;51.552;6.716;2023-09-18T08:34:10;1.50;;;1.40;;
12816;SDS011;6473;51.552;6.716;2023-09-18T08:36:37;4.75;;;1.52;;
12816;SDS011;6473;51.552;6.716;2023-09-18T08:39:05;1.60;;;1.50;;
12816;SDS011;6473;51.552;6.716;2023-09-18T08:41:33;2.42;;;1.70;;
12816;SDS011;6473;51.552;6.716;2023-09-18T08:44:07;2.13;;;1.60;;
12816;SDS011;6473;51.552;6.716;2023-09-18T08:46:35;3.58;;;1.60;;
12816;SDS011;6473;51.552;6.716;2023-09-18T08:49:03;2.70;;;1.58;;
12816;SDS011;6473;51.552;6.716;2023-09-18T08:51:31;3.25;;;1.70;;
12816;SDS011;6473;51.552;6.716;2023-09-18T08:53:59;2.60;;;1.55;;
12816;SDS011;6473;51.552;6.716;2023-09-18T08:56:29;4.20;;;1.48;;
12816;SDS011;6473;51.552;6.716;2023-09-18T08:58:57;2.60;;;1.80;;
12816;SDS011;6473;51.552;6.716;2023-09-18T09:01:25;3.50;;;1.63;;
12816;SDS011;6473;51.552;6.716;2023-09-18T09:03:52;3.50;;;1.73;;
12816;SDS011;6473;51.552;6.716;2023-09-18T09:06:19;3.75;;;1.65;;
12816;SDS011;6473;51.552;6.716;2023-09-18T09:08:46;2.25;;;1.38;;
12816;SDS011;6473;51.552;6.716;2023-09-18T09:11:13;2.95;;;1.63;;
12816;SDS011;6473;51.552;6.716;2023-09-18T09:13:41;1.45;;;1.30;;
12816;SDS011;6473;51.552;6.716;2023-09-18T09:16:09;10.95;;;2.33;;
12816;SDS011;6473;51.552;6.716;2023-09-18T09:18:46;5.05;;;1.42;;
12816;SDS011;6473;51.552;6.716;2023-09-18T09:21:15;1.67;;;1.30;;
12816;SDS011;6473;51.552;6.716;2023-09-18T09:23:45;2.47;;;1.70;;
12816;SDS011;6473;51.552;6.716;2023-09-18T09:26:17;1.98;;;1.60;;
12816;SDS011;6473;51.552;6.716;2023-09-18T09:28:47;2.17;;;1.50;;
12816;SDS011;6473;51.552;6.716;2023-09-18T09:31:22;2.15;;;1.27;;
12816;SDS011;6473;51.552;6.716;2023-09-18T09:33:51;2.08;;;1.40;;
12816;SDS011;6473;51.552;6.716;2023-09-18T09:36:19;2.50;;;1.30;;
12816;SDS011;6473;51.552;6.716;2023-09-18T09:38:47;2.15;;;1.52;;
12816;SDS011;6473;51.552;6.716;2023-09-18T09:41:14;1.83;;;1.35;;
12816;SDS011;6473;51.552;6.716;2023-09-18T09:43:43;2.58;;;1.58;;
12816;SDS011;6473;51.552;6.716;2023-09-18T09:46:15;1.58;;;1.48;;
12816;SDS011;6473;51.552;6.716;2023-09-18T09:48:57;3.85;;;1.40;;
12816;SDS011;6473;51.552;6.716;2023-09-18T09:51:26;3.95;;;1.42;;
12816;SDS011;6473;51.552;6.716;2023-09-18T09:53:53;1.05;;;0.93;;
12816;SDS011;6473;51.552;6.716;2023-09-18T09:56:20;1.60;;;1.42;;
12816;SDS011;6473;51.552;6.716;2023-09-18T09:59:00;2.95;;;1.23;;
12816;SDS011;6473;51.552;6.716;2023-09-18T10:01:31;2.13;;;1.40;;
12816;SDS011;6473;51.552;6.716;2023-09-18T10:03:59;1.40;;;1.30;;
12816;SDS011;6473;51.552;6.716;2023-09-18T10:06:30;2.15;;;1.23;;
12816;SDS011;6473;51.552;6.716;2023-09-18T10:08:59;2.30;;;1.40;;
12816;SDS011;6473;51.552;6.716;2023-09-18T10:11:28;2.63;;;1.70;;
12816;SDS011;6473;51.552;6.716;2023-09-18T10:29:07;3.17;;;1.63;;
12816;SDS011;6473;51.552;6.716;2023-09-18T10:31:47;1.63;;;1.20;;
12816;SDS011;6473;51.552;6.716;2023-09-18T10:34:15;1.55;;;1.10;;
12816;SDS011;6473;51.552;6.716;2023-09-18T10:36:43;1.58;;;1.38;;
12816;SDS011;6473;51.552;6.716;2023-09-18T10:48:10;1.55;;;1.45;;
12816;SDS011;6473;51.552;6.716;2023-09-18T10:50:38;2.60;;;1.15;;
12816;SDS011;6473;51.552;6.716;2023-09-18T10:53:06;1.55;;;1.40;;
12816;SDS011;6473;51.552;6.716;2023-09-18T10:55:33;3.38;;;1.73;;
12816;SDS011;6473;51.552;6.716;2023-09-18T10:58:01;2.38;;;1.55;;
12816;SDS011;6473;51.552;6.716;2023-09-18T11:00:29;1.98;;;1.50;;
12816;SDS011;6473;51.552;6.716;2023-09-18T11:03:13;1.45;;;1.35;;
12816;SDS011;6473;51.552;6.716;2023-09-18T11:05:43;2.25;;;1.60;;
12816;SDS011;6473;51.552;6.716;2023-09-18T11:08:27;2.22;;;1.65;;
12816;SDS011;6473;51.552;6.716;2023-09-18T11:10:55;2.42;;;1.67;;
12816;SDS011;6473;51.552;6.716;2023-09-18T11:13:30;4.05;;;1.90;;
12816;SDS011;6473;51.552;6.716;2023-09-18T11:16:00;2.33;;;1.60;;
12816;SDS011;6473;51.552;6.716;2023-09-18T11:18:41;2.22;;;2.08;;
12816;SDS011;6473;51.552;6.716;2023-09-18T11:21:08;2.35;;;1.52;;
12816;SDS011;6473;51.552;6.716;2023-09-18T11:23:36;3.92;;;1.40;;
12816;SDS011;6473;51.552;6.716;2023-09-18T11:26:08;2.15;;;1.60;;
12816;SDS011;6473;51.552;6.716;2023-09-18T11:28:35;1.70;;;1.40;;
12816;SDS011;6473;51.552;6.716;2023-09-18T11:31:03;3.25;;;1.60;;
12816;SDS011;6473;51.552;6.716;2023-09-18T11:33:31;1.60;;;1.50;;
12816;SDS011;6473;51.552;6.716;2023-09-18T11:36:04;2.78;;;1.65;;
12816;SDS011;6473;51.552;6.716;2023-09-18T11:38:33;2.83;;;1.70;;
12816;SDS011;6473;51.552;6.716;2023-09-18T11:49:23;2.72;;;1.52;;
12816;SDS011;6473;51.552;6.716;2023-09-18T11:55:46;3.10;;;1.80;;
12816;SDS011;6473;51.552;6.716;2023-09-18T11:58:13;2.95;;;1.40;;
12816;SDS011;6473;51.552;6.716;2023-09-18T12:00:41;2.13;;;1.65;;
12816;SDS011;6473;51.552;6.716;2023-09-18T12:03:15;2.15;;;1.55;;
12816;SDS011;6473;51.552;6.716;2023-09-18T12:06:07;3.05;;;1.60;;
12816;SDS011;6473;51.552;6.716;2023-09-18T12:12:46;1.60;;;1.50;;
12816;SDS011;6473;51.552;6.716;2023-09-18T12:19:00;2.40;;;1.60;;
12816;SDS011;6473;51.552;6.716;2023-09-18T12:24:37;1.52;;;1.42;;
12816;SDS011;6473;51.552;6.716;2023-09-18T12:27:05;1.63;;;1.40;;
12816;SDS011;6473;51.552;6.716;2023-09-18T12:29:39;1.67;;;1.50;;
12816;SDS011;6473;51.552;6.716;2023-09-18T12:32:08;1.65;;;1.55;;
12816;SDS011;6473;51.552;6.716;2023-09-18T12:34:40;1.42;;;1.33;;
12816;SDS011;6473;51.552;6.716;2023-09-18T12:37:07;3.03;;;1.40;;
12816;SDS011;6473;51.552;6.716;2023-09-18T12:57:30;3.45;;;1.33;;
12816;SDS011;6473;51.552;6.716;2023-09-18T12:59:58;1.50;;;1.40;;
12816;SDS011;6473;51.552;6.716;2023-09-18T13:02:36;1.52;;;1.40;;
12816;SDS011;6473;51.552;6.716;2023-09-18T13:05:05;2.83;;;1.75;;
12816;SDS011;6473;51.552;6.716;2023-09-18T13:07:38;1.92;;;1.30;;
12816;SDS011;6473;51.552;6.716;2023-09-18T13:10:11;2.92;;;1.50;;
12816;SDS011;6473;51.552;6.716;2023-09-18T13:12:41;2.80;;;1.73;;
12816;SDS011;6473;51.552;6.716;2023-09-18T13:15:09;3.08;;;1.63;;
12816;SDS011;6473;51.552;6.716;2023-09-18T13:17:47;1.73;;;1.60;;
12816;SDS011;6473;51.552;6.716;2023-09-18T13:20:16;1.35;;;1.25;;
12816;SDS011;6473;51.552;6.716;2023-09-18T13:22:47;2.00;;;1.60;;
12816;SDS011;6473;51.552;6.716;2023-09-18T13:25:18;2.65;;;1.50;;
12816;SDS011;6473;51.552;6.716;2023-09-18T13:27:48;2.72;;;1.50;;
12816;SDS011;6473;51.552;6.716;2023-09-18T13:30:15;3.15;;;1.40;;
12816;SDS011;6473;51.552;6.716;2023-09-18T13:32:43;2.30;;;1.40;;
12816;SDS011;6473;51.552;6.716;2023-09-18T13:35:11;2.13;;;1.50;;
12816;SDS011;6473;51.552;6.716;2023-09-18T13:37:39;3.85;;;1.40;;
12816;SDS011;6473;51.552;6.716;2023-09-18T13:40:06;2.28;;;1.30;;
12816;SDS011;6473;51.552;6.716;2023-09-18T13:42:34;3.25;;;1.30;;
12816;SDS011;6473;51.552;6.716;2023-09-18T13:45:05;1.40;;;1.30;;
12816;SDS011;6473;51.552;6.716;2023-09-18T13:47:33;1.80;;;1.70;;
12816;SDS011;6473;51.552;6.716;2023-09-18T13:50:02;2.20;;;1.60;;
12816;SDS011;6473;51.552;6.716;2023-09-18T13:52:34;2.90;;;1.42;;
12816;SDS011;6473;51.552;6.716;2023-09-18T13:55:02;2.50;;;1.45;;
12816;SDS011;6473;51.552;6.716;2023-09-18T13:57:31;1.50;;;1.40;;
12816;SDS011;6473;51.552;6.716;2023-09-18T13:59:59;1.48;;;1.20;;
12816;SDS011;6473;51.552;6.716;2023-09-18T14:02:39;3.13;;;1.52;;
12816;SDS011;6473;51.552;6.716;2023-09-18T14:05:13;1.58;;;1.48;;
12816;SDS011;6473;51.552;6.716;2023-09-18T14:07:40;1.20;;;1.20;;
12816;SDS011;6473;51.552;6.716;2023-09-18T14:10:08;4.35;;;1.50;;
12816;SDS011;6473;51.552;6.716;2023-09-18T14:12:36;1.92;;;1.42;;
12816;SDS011;6473;51.552;6.716;2023-09-18T14:15:03;2.97;;;1.60;;
12816;SDS011;6473;51.552;6.716;2023-09-18T14:17:31;2.15;;;1.50;;
12816;SDS011;6473;51.552;6.716;2023-09-18T14:19:59;2.03;;;1.42;;
12816;SDS011;6473;51.552;6.716;2023-09-18T14:22:37;3.97;;;1.45;;
12816;SDS011;6473;51.552;6.716;2023-09-18T14:25:05;3.08;;;1.50;;
12816;SDS011;6473;51.552;6.716;2023-09-18T14:27:32;2.20;;;1.52;;
12816;SDS011;6473;51.552;6.716;2023-09-18T14:30:00;2.42;;;1.40;;
12816;SDS011;6473;51.552;6.716;2023-09-18T14:32:31;2.83;;;1.33;;
12816;SDS011;6473;51.552;6.716;2023-09-18T14:34:59;1.42;;;1.33;;
12816;SDS011;6473;51.552;6.716;2023-09-18T14:37:27;4.15;;;1.58;;
12816;SDS011;6473;51.552;6.716;2023-09-18T14:39:54;1.35;;;1.15;;
12816;SDS011;6473;51.552;6.716;2023-09-18T14:42:21;2.13;;;1.30;;
12816;SDS011;6473;51.552;6.716;2023-09-18T14:44:48;1.95;;;1.40;;
12816;SDS011;6473;51.552;6.716;2023-09-18T14:47:15;2.60;;;1.58;;
12816;SDS011;6473;51.552;6.716;2023-09-18T14:49:42;2.20;;;1.38;;
12816;SDS011;6473;51.552;6.716;2023-09-18T14:52:12;1.50;;;1.40;;
12816;SDS011;6473;51.552;6.716;2023-09-18T14:54:41;2.25;;;1.38;;
12816;SDS011;6473;51.552;6.716;2023-09-18T14:57:08;1.55;;;1.40;;
12816;SDS011;6473;51.552;6.716;2023-09-18T14:59:35;1.92;;;1.50;;
12816;SDS011;6473;51.552;6.716;2023-09-18T15:02:03;1.65;;;1.40;;
12816;SDS011;6473;51.552;6.716;2023-09-18T15:04:31;2.33;;;1.25;;
12816;SDS011;6473;51.552;6.716;2023-09-18T15:06:58;2.00;;;1.52;;
12816;SDS011;6473;51.552;6.716;2023-09-18T15:09:27;1.83;;;1.42;;
12816;SDS011;6473;51.552;6.716;2023-09-18T15:11:54;1.75;;;1.38;;
12816;SDS011;6473;51.552;6.716;2023-09-18T15:14:20;3.40;;;1.70;;
12816;SDS011;6473;51.552;6.716;2023-09-18T15:16:47;3.03;;;1.52;;
12816;SDS011;6473;51.552;6.716;2023-09-18T15:19:14;1.58;;;1.38;;
12816;SDS011;6473;51.552;6.716;2023-09-18T15:21:42;2.92;;;1.38;;
12816;SDS011;6473;51.552;6.716;2023-09-18T15:24:09;1.88;;;1.40;;
12816;SDS011;6473;51.552;6.716;2023-09-18T15:26:37;2.05;;;1.50;;
12816;SDS011;6473;51.552;6.716;2023-09-18T15:29:04;2.10;;;1.35;;
12816;SDS011;6473;51.552;6.716;2023-09-18T15:31:33;1.67;;;1.55;;
12816;SDS011;6473;51.552;6.716;2023-09-18T15:34:00;3.22;;;1.50;;
12816;SDS011;6473;51.552;6.716;2023-09-18T15:36:27;2.40;;;1.60;;
12816;SDS011;6473;51.552;6.716;2023-09-18T15:38:53;2.38;;;1.42;;
12816;SDS011;6473;51.552;6.716;2023-09-18T15:41:21;3.25;;;1.75;;
12816;SDS011;6473;51.552;6.716;2023-09-18T15:43:49;1.40;;;1.30;;
12816;SDS011;6473;51.552;6.716;2023-09-18T15:46:16;2.28;;;1.50;;
12816;SDS011;6473;51.552;6.716;2023-09-18T15:48:43;1.85;;;1.50;;
12816;SDS011;6473;51.552;6.716;2023-09-18T15:51:10;2.05;;;1.33;;
12816;SDS011;6473;51.552;6.716;2023-09-18T15:53:37;1.80;;;1.33;;
12816;SDS011;6473;51.552;6.716;2023-09-18T15:56:04;1.73;;;1.38;;
12816;SDS011;6473;51.552;6.716;2023-09-18T15:58:31;2.63;;;1.38;;
12816;SDS011;6473;51.552;6.716;2023-09-18T16:01:01;2.08;;;1.40;;
12816;SDS011;6473;51.552;6.716;2023-09-18T16:03:29;1.60;;;1.40;;
12816;SDS011;6473;51.552;6.716;2023-09-18T16:05:56;1.52;;;1.35;;
12816;SDS011;6473;51.552;6.716;2023-09-18T16:08:24;1.40;;;1.30;;
12816;SDS011;6473;51.552;6.716;2023-09-18T16:10:50;1.40;;;1.30;;
12816;SDS011;6473;51.552;6.716;2023-09-18T16:13:18;2.22;;;1.38;;
12816;SDS011;6473;51.552;6.716;2023-09-18T16:15:45;5.28;;;1.77;;
12816;SDS011;6473;51.552;6.716;2023-09-18T16:18:13;1.95;;;1.48;;
12816;SDS011;6473;51.552;6.716;2023-09-18T16:20:40;2.65;;;1.48;;